SVR234 URSS-UUDD
Flight info
| Callsign | SVR234 |
|---|---|
| Flight time | N/A |
| Altitude | 35000 |
| Route | K0828F350 IRGID1D IRGID A944 BEMES R227 KZ DCT DITEK/K0832F360 N50 OBABI/K0824F370 T619 LUGIL/K0817F360 T619 UMRAL DCT LAMKO DCT GOLRI L736 OLOPI OLOPI3N |
| Aircraft | A321/M-SDE3FGHIRWY/LB1 |
Departure
| Time | N/A |
|---|---|
| Airport | Sochi International Airport (URSS) |
Arrival
| Time | 2026-05-06 12:20 |
|---|---|
| Airport | Domodedovo International Airport (UUDD) |
| Time | Latitude | Longitude | Altitude | Speed | Heading |
|---|---|---|---|---|---|
| 2026-05-06 11:58 | 54.89696 | 38.58700 | 10391 ft | 286 kts | 308° |
| 2026-05-06 11:58 | 54.90987 | 38.56073 | 10040 ft | 285 kts | 308° |
| 2026-05-06 11:58 | 54.92265 | 38.53496 | 9813 ft | 280 kts | 309° |
| 2026-05-06 11:59 | 54.93518 | 38.50979 | 9489 ft | 277 kts | 308° |
| 2026-05-06 11:59 | 54.94769 | 38.48432 | 9154 ft | 276 kts | 308° |
| 2026-05-06 11:59 | 54.96007 | 38.45895 | 8800 ft | 275 kts | 308° |
| 2026-05-06 11:59 | 54.97246 | 38.43356 | 8464 ft | 275 kts | 308° |
| 2026-05-06 12:00 | 54.98480 | 38.40830 | 8129 ft | 273 kts | 308° |
| 2026-05-06 12:00 | 54.99704 | 38.38327 | 7780 ft | 271 kts | 309° |
| 2026-05-06 12:00 | 55.00924 | 38.35840 | 7456 ft | 269 kts | 308° |
| 2026-05-06 12:00 | 55.02137 | 38.33356 | 7119 ft | 269 kts | 308° |
| 2026-05-06 12:01 | 55.03343 | 38.30881 | 6793 ft | 267 kts | 308° |
| 2026-05-06 12:01 | 55.04543 | 38.28418 | 6460 ft | 266 kts | 308° |
| 2026-05-06 12:01 | 55.05742 | 38.25959 | 6124 ft | 265 kts | 309° |
| 2026-05-06 12:01 | 55.06931 | 38.23511 | 5791 ft | 265 kts | 308° |
| 2026-05-06 12:02 | 55.08116 | 38.21076 | 5468 ft | 262 kts | 309° |
| 2026-05-06 12:02 | 55.09283 | 38.18671 | 5264 ft | 256 kts | 309° |
| 2026-05-06 12:02 | 55.10408 | 38.16351 | 5134 ft | 246 kts | 309° |
| 2026-05-06 12:02 | 55.11518 | 38.14145 | 4965 ft | 239 kts | 316° |
| 2026-05-06 12:03 | 55.12877 | 38.12558 | 4894 ft | 237 kts | 334° |
| 2026-05-06 12:03 | 55.13914 | 38.11944 | 4827 ft | 239 kts | 346° |
| 2026-05-06 12:03 | 55.15551 | 38.11429 | 4666 ft | 238 kts | 348° |
| 2026-05-06 12:03 | 55.17206 | 38.10912 | 4510 ft | 239 kts | 347° |
| 2026-05-06 12:04 | 55.18813 | 38.10404 | 4334 ft | 237 kts | 348° |
| 2026-05-06 12:04 | 55.20406 | 38.09898 | 4247 ft | 231 kts | 348° |
| 2026-05-06 12:04 | 55.21944 | 38.09413 | 4185 ft | 217 kts | 347° |
| 2026-05-06 12:04 | 55.23360 | 38.08964 | 4077 ft | 197 kts | 347° |
| 2026-05-06 12:05 | 55.24582 | 38.08167 | 3962 ft | 180 kts | 325° |
| 2026-05-06 12:05 | 55.25595 | 38.06970 | 3745 ft | 171 kts | 323° |
| 2026-05-06 12:05 | 55.26555 | 38.05831 | 3570 ft | 163 kts | 323° |
| 2026-05-06 12:05 | 55.27481 | 38.04728 | 3358 ft | 159 kts | 323° |
| 2026-05-06 12:06 | 55.28361 | 38.03679 | 3169 ft | 149 kts | 324° |
| 2026-05-06 12:06 | 55.29210 | 38.02667 | 2981 ft | 146 kts | 324° |
| 2026-05-06 12:06 | 55.30043 | 38.01673 | 2776 ft | 143 kts | 324° |
| 2026-05-06 12:06 | 55.30869 | 38.00687 | 2592 ft | 144 kts | 323° |
| 2026-05-06 12:07 | 55.31695 | 37.99698 | 2406 ft | 144 kts | 324° |
| 2026-05-06 12:07 | 55.32523 | 37.98709 | 2217 ft | 144 kts | 323° |
| 2026-05-06 12:07 | 55.33352 | 37.97718 | 2035 ft | 144 kts | 323° |
| 2026-05-06 12:07 | 55.34175 | 37.96732 | 1783 ft | 143 kts | 324° |
| 2026-05-06 12:08 | 55.35000 | 37.95750 | 1609 ft | 143 kts | 324° |
| 2026-05-06 12:08 | 55.35816 | 37.94766 | 1457 ft | 142 kts | 323° |
| 2026-05-06 12:08 | 55.36641 | 37.93789 | 1290 ft | 143 kts | 324° |
| 2026-05-06 12:08 | 55.37457 | 37.92797 | 1060 ft | 143 kts | 322° |
| 2026-05-06 12:09 | 55.38217 | 37.91733 | 826 ft | 141 kts | 323° |
| 2026-05-06 12:09 | 55.39067 | 37.90610 | 1322 ft | 158 kts | 323° |
| 2026-05-06 12:09 | 55.39938 | 37.89503 | 1832 ft | 154 kts | 315° |
| 2026-05-06 12:09 | 55.40254 | 37.87771 | 2170 ft | 158 kts | 263° |
| 2026-05-06 12:10 | 55.39629 | 37.86132 | 2313 ft | 175 kts | 213° |
| 2026-05-06 12:10 | 55.38403 | 37.85570 | 2453 ft | 189 kts | 191° |
| 2026-05-06 12:10 | 55.37961 | 37.85453 | 2491 ft | 191 kts | 190° |
| 2026-05-06 12:10 | 55.35707 | 37.84898 | 2765 ft | 200 kts | 189° |
| 2026-05-06 12:11 | 55.34291 | 37.84547 | 2878 ft | 216 kts | 189° |
| 2026-05-06 12:11 | 55.32750 | 37.84152 | 3303 ft | 227 kts | 189° |
| 2026-05-06 12:11 | 55.31181 | 37.83748 | 4073 ft | 228 kts | 190° |
| 2026-05-06 12:11 | 55.29604 | 37.83340 | 4756 ft | 231 kts | 191° |
| 2026-05-06 12:12 | 55.27997 | 37.82923 | 4975 ft | 233 kts | 190° |
| 2026-05-06 12:12 | 55.26409 | 37.82514 | 4949 ft | 227 kts | 190° |
| 2026-05-06 12:12 | 55.24838 | 37.82637 | 4620 ft | 225 kts | 165° |
| 2026-05-06 12:12 | 55.23558 | 37.83891 | 4515 ft | 200 kts | 139° |
| 2026-05-06 12:13 | 55.22779 | 37.85767 | 4388 ft | 184 kts | 115° |
| 2026-05-06 12:13 | 55.22499 | 37.87877 | 4256 ft | 175 kts | 92° |
| 2026-05-06 12:13 | 55.22625 | 37.89957 | 4086 ft | 171 kts | 81° |
| 2026-05-06 12:13 | 55.22800 | 37.92029 | 3971 ft | 172 kts | 81° |
| 2026-05-06 12:14 | 55.22970 | 37.94094 | 3842 ft | 171 kts | 81° |
| 2026-05-06 12:14 | 55.23143 | 37.96149 | 3726 ft | 170 kts | 81° |
| 2026-05-06 12:14 | 55.23313 | 37.98183 | 3619 ft | 169 kts | 81° |
| 2026-05-06 12:14 | 55.23482 | 38.00216 | 3502 ft | 168 kts | 80° |
| 2026-05-06 12:15 | 55.23663 | 38.02238 | 3378 ft | 168 kts | 76° |
| 2026-05-06 12:15 | 55.24171 | 38.04020 | 3282 ft | 159 kts | 48° |
| 2026-05-06 12:15 | 55.25030 | 38.05167 | 3177 ft | 154 kts | 21° |
| 2026-05-06 12:15 | 55.26044 | 38.05555 | 3093 ft | 148 kts | 358° |
| 2026-05-06 12:16 | 55.27033 | 38.05186 | 3019 ft | 145 kts | 334° |
| 2026-05-06 12:16 | 55.27877 | 38.04257 | 3020 ft | 144 kts | 325° |
| 2026-05-06 12:16 | 55.28707 | 38.03267 | 2985 ft | 145 kts | 325° |
| 2026-05-06 12:16 | 55.29539 | 38.02277 | 2866 ft | 144 kts | 323° |
| 2026-05-06 12:17 | 55.30364 | 38.01292 | 2696 ft | 144 kts | 324° |
| 2026-05-06 12:17 | 55.31194 | 38.00298 | 2512 ft | 144 kts | 323° |
| 2026-05-06 12:17 | 55.32025 | 37.99318 | 2325 ft | 144 kts | 324° |
| 2026-05-06 12:17 | 55.32858 | 37.98314 | 2152 ft | 145 kts | 323° |
| 2026-05-06 12:18 | 55.33693 | 37.97322 | 1964 ft | 144 kts | 324° |
| 2026-05-06 12:18 | 55.34521 | 37.96326 | 1716 ft | 144 kts | 323° |
| 2026-05-06 12:18 | 55.35347 | 37.95326 | 1474 ft | 144 kts | 323° |
| 2026-05-06 12:18 | 55.36163 | 37.94343 | 1311 ft | 144 kts | 323° |
| 2026-05-06 12:19 | 55.37004 | 37.93339 | 1117 ft | 144 kts | 324° |
| 2026-05-06 12:19 | 55.37828 | 37.92344 | 933 ft | 144 kts | 324° |
| 2026-05-06 12:19 | 55.38656 | 37.91358 | 738 ft | 143 kts | 323° |
| 2026-05-06 12:19 | 55.39481 | 37.90374 | 615 ft | 144 kts | 325° |
| 2026-05-06 12:20 | 55.40261 | 37.89416 | 569 ft | 122 kts | 326° |
| 2026-05-06 12:20 | 55.40826 | 37.88747 | 576 ft | 72 kts | 325° |
| 2026-05-06 12:20 | 55.41070 | 37.88460 | 577 ft | 24 kts | 332° |
| 2026-05-06 12:20 | 55.41216 | 37.88367 | 580 ft | 22 kts | 352° |
| 2026-05-06 12:21 | 55.41355 | 37.88355 | 584 ft | 16 kts | 19° |
| 2026-05-06 12:21 | 55.41347 | 37.88496 | 581 ft | 14 kts | 146° |
| 2026-05-06 12:21 | 55.41255 | 37.88606 | 583 ft | 18 kts | 146° |
| 2026-05-06 12:21 | 55.41170 | 37.88764 | 578 ft | 12 kts | 86° |
| 2026-05-06 12:22 | 55.41195 | 37.88831 | 580 ft | 7 kts | 54° |
| 2026-05-06 12:22 | 55.41239 | 37.88926 | 582 ft | 13 kts | 28° |
| 2026-05-06 12:22 | 55.41311 | 37.88873 | 578 ft | 13 kts | 325° |
| 2026-05-06 12:22 | 55.41393 | 37.88773 | 581 ft | 16 kts | 326° |
| 2026-05-06 12:23 | 55.41455 | 37.88639 | 581 ft | 13 kts | 325° |
| 2026-05-06 12:23 | 55.41564 | 37.88570 | 581 ft | 23 kts | 315° |
| 2026-05-06 12:23 | 55.41547 | 37.88456 | 581 ft | 9 kts | 214° |
| 2026-05-06 12:23 | 55.41500 | 37.88382 | 581 ft | 19 kts | 212° |
| 2026-05-06 12:24 | 55.41330 | 37.88515 | 582 ft | 22 kts | 147° |
| 2026-05-06 12:24 | 55.41192 | 37.88680 | 579 ft | 26 kts | 146° |
| 2026-05-06 12:24 | 55.41029 | 37.88876 | 576 ft | 30 kts | 144° |
| 2026-05-06 12:24 | 55.40857 | 37.89085 | 576 ft | 31 kts | 146° |
| 2026-05-06 12:25 | 55.40781 | 37.89289 | 574 ft | 21 kts | 91° |
| 2026-05-06 12:25 | 55.40849 | 37.89522 | 577 ft | 22 kts | 39° |
| 2026-05-06 12:25 | 55.40942 | 37.89737 | 571 ft | 23 kts | 54° |
| 2026-05-06 12:25 | 55.41035 | 37.89979 | 569 ft | 25 kts | 56° |
| 2026-05-06 12:26 | 55.41136 | 37.90237 | 573 ft | 20 kts | 55° |
| 2026-05-06 12:26 | 55.41224 | 37.90272 | 572 ft | 14 kts | 333° |
| 2026-05-06 12:26 | 55.41305 | 37.90220 | 574 ft | 12 kts | 17° |
| 2026-05-06 12:26 | 55.41337 | 37.90273 | 574 ft | 0 kts | 50° |